»·PEaware :: N283LT KSBP-KSBA

N283LT :: KSBP-KSBA

FLIGHT INFORMATION

Flight Status: Arrived
Operator: Privately registered:
United States
More flights under this callsign
Pilot: Tom D. (17893)
Aircraft: Unknown
(DA62)
More flights by this aircraft type
Origin: KSBP San Luis Co Regl
United States
Destination: KSBA Santa Barbara Mun
United States
More flights between these airports :: More routes between these airports
Route: +MQO V27 GVO
File this flight plan on PilotEdge
Remarks: / G
Altitude:
(Current/Filed)
9,000ft
Speed:
(Current/Filed)
140kts
Departed: 05-May-18 01:29 PM
Arrived: 05-May-18 02:20 PM
Distance/Time
Traveled:
62nm/0:51
Distance/Time
To Go:
Arrived

Flight Plot

Page will automatically refresh every two minutes.


Map Options




Map Legend


Flown Route
Filed Route
Departure Airport
Arrival Airport
Navaid (VOR, NDB)
Fix

Horizontal Profiles

Position Reports

Time Latitude Longitude Heading Altitude Ground
Speed
05-May-18 13:10 35.234338 -120.632943 126 179ft 0kts
05-May-18 13:11 35.234338 -120.632943 126 179ft 0kts
05-May-18 13:12 35.234338 -120.632943 126 179ft 0kts
05-May-18 13:13 35.234338 -120.632943 126 179ft 0kts
05-May-18 13:14 35.234338 -120.632943 126 179ft 0kts
05-May-18 13:15 35.234338 -120.632943 126 179ft 0kts
05-May-18 13:16 35.234338 -120.632943 126 179ft 0kts
05-May-18 13:17 35.234338 -120.632943 126 179ft 0kts
05-May-18 13:18 35.234338 -120.632943 126 179ft 0kts
05-May-18 13:19 35.234338 -120.632943 126 179ft 0kts
05-May-18 13:20 35.234434 -120.633434 303 179ft 0kts
05-May-18 13:21 35.234434 -120.633434 303 179ft 0kts
05-May-18 13:22 35.234434 -120.633434 303 179ft 0kts
05-May-18 13:23 35.234434 -120.633434 303 179ft 0kts
05-May-18 13:24 35.234434 -120.633434 303 179ft 0kts
05-May-18 13:25 35.234434 -120.633434 303 179ft 0kts
05-May-18 13:26 35.234434 -120.633434 303 179ft 0kts
05-May-18 13:27 35.234434 -120.633434 303 179ft 0kts
05-May-18 13:28 35.233192 -120.632359 214 179ft 4kts
05-May-18 13:29 35.234162 -120.635498 303 179ft 59kts
05-May-18 13:30 35.247528 -120.659627 296 1207ft 97kts
05-May-18 13:31 35.261205 -120.686451 301 2651ft 98kts
05-May-18 13:32 35.275495 -120.714219 302 4133ft 98kts
05-May-18 13:33 35.291818 -120.745996 301 5000ft 145kts
05-May-18 13:34 35.308596 -120.793916 248 4970ft 165kts
05-May-18 13:35 35.275277 -120.789857 142 5935ft 133kts
05-May-18 13:36 35.246541 -120.762856 142 6915ft 130kts
05-May-18 13:37 35.212944 -120.731263 142 6987ft 167kts
05-May-18 13:38 35.176290 -120.696809 142 6983ft 165kts
05-May-18 13:39 35.140160 -120.662854 142 6983ft 163kts
05-May-18 13:40 35.104462 -120.629284 141 6981ft 163kts
05-May-18 13:41 35.069126 -120.595893 141 6983ft 163kts
05-May-18 13:42 35.033676 -120.562246 141 6983ft 163kts
05-May-18 13:43 34.998369 -120.528859 141 6984ft 163kts
05-May-18 13:44 34.962202 -120.494693 141 7012ft 168kts
05-May-18 13:45 34.925395 -120.459990 141 7012ft 170kts
05-May-18 13:46 34.889141 -120.425864 142 7007ft 170kts
05-May-18 13:47 34.851909 -120.390829 141 7011ft 170kts
05-May-18 13:48 34.814569 -120.355741 141 7012ft 169kts
05-May-18 13:49 34.787617 -120.330399 143 7011ft 170kts
05-May-18 13:50 34.752336 -120.297279 144 7010ft 168kts
05-May-18 13:51 34.716638 -120.263972 145 7010ft 167kts
05-May-18 13:52 34.680049 -120.229752 145 7013ft 166kts
05-May-18 13:53 34.643702 -120.195804 144 7003ft 166kts
05-May-18 13:54 34.607473 -120.161961 144 6983ft 163kts
05-May-18 13:55 34.572033 -120.128911 144 6983ft 162kts
05-May-18 13:55 34.542330 -120.101237 144 6983ft 162kts
05-May-18 13:56 34.516981 -120.056938 118 7011ft 163kts
05-May-18 13:57 34.496391 -120.007064 116 6810ft 173kts
05-May-18 13:58 34.477564 -119.956589 116 6239ft 162kts
05-May-18 13:59 34.459879 -119.909310 116 5436ft 152kts
05-May-18 14:00 34.443453 -119.865408 116 4978ft 131kts
05-May-18 14:01 34.429144 -119.827292 116 4986ft 128kts
05-May-18 14:02 34.414083 -119.787164 116 4984ft 133kts
05-May-18 14:03 34.398650 -119.746096 116 4986ft 137kts
05-May-18 14:04 34.383215 -119.703816 113 4984ft 139kts
05-May-18 14:05 34.368324 -119.660248 114 4984ft 140kts
05-May-18 14:06 34.353890 -119.616191 121 4974ft 141kts
05-May-18 14:07 34.320423 -119.592757 156 4792ft 151kts
05-May-18 14:08 34.302875 -119.551952 42 3860ft 168kts
05-May-18 14:09 34.343350 -119.557192 335 3051ft 152kts
05-May-18 14:10 34.356818 -119.589036 273 2787ft 117kts
05-May-18 14:11 34.362367 -119.628685 283 2284ft 123kts
05-May-18 14:12 34.371638 -119.664500 287 2083ft 110kts
05-May-18 14:13 34.381473 -119.701374 292 2094ft 121kts
05-May-18 14:14 34.395176 -119.737584 292 1869ft 109kts
05-May-18 14:15 34.408848 -119.771854 299 1491ft 103kts
05-May-18 14:16 34.422975 -119.796434 294 1016ft 89kts
05-May-18 14:17 34.427979 -119.824307 269 247ft 74kts
05-May-18 14:18 34.427630 -119.846940 266 16ft 55kts
05-May-18 14:19 34.427015 -119.851891 160 16ft 0kts
05-May-18 14:20 34.427015 -119.851891 160 16ft 0kts
05-May-18 14:21 34.427015 -119.851891 160 16ft 0kts
05-May-18 14:22 34.426633 -119.842825 91 16ft 46kts
05-May-18 14:23 34.427156 -119.834878 28 16ft 0kts
05-May-18 14:24 34.427188 -119.834862 19 16ft 5kts
05-May-18 14:25 34.432887 -119.836006 331 16ft 0kts
05-May-18 14:26 34.432887 -119.836005 331 16ft 0kts
05-May-18 14:27 34.432887 -119.836005 331 16ft 0kts
05-May-18 14:28 34.432887 -119.836005 331 16ft 0kts
05-May-18 14:29 34.432887 -119.836005 331 16ft 0kts
05-May-18 14:30 34.432887 -119.836005 331 16ft 0kts
05-May-18 14:31 34.432887 -119.836005 331 16ft 0kts
05-May-18 14:32 34.432887 -119.836005 331 16ft 0kts

Navigation Log

Ident Type
1. KSBP Airport
2. MQO Navaid
3. AVILA Fix
4. NINOO Fix
5. FABEG Fix
6. ORCUT Fix
7. AFOXY Fix
8. GVO Navaid
9. KSBA Airport